Time;durP1;ratioP1;P1;durP2;ratioP2;P2;SDS_P1;SDS_P2;PMS_P1;PMS_P2;Temp;Humidity;BMP_temperature;BMP_pressure;BME280_temperature;BME280_humidity;BME280_pressure;Samples;Min_cycle;Max_cycle;Signal;HPM_P1;HPM_P2
2023/02/17 00:04:54;;;;;;;10.02;9.23;;;;;;;8.76;71.67;100399.84;10547020;28;20511;-74
2023/02/17 00:09:57;;;;;;;10.98;9.93;;;;;;;8.80;70.77;100402.38;10548990;28;20036;-74
2023/02/17 00:14:58;;;;;;;9.50;8.57;;;;;;;8.80;71.10;100412.84;10527859;28;20040;-73
2023/02/17 00:20:00;;;;;;;11.35;10.45;;;;;;;8.86;70.72;100411.03;10527076;28;20040;-73
2023/02/17 00:25:02;;;;;;;11.35;10.35;;;;;;;9.05;69.28;100409.78;10545657;28;20500;-74
2023/02/17 00:30:05;;;;;;;11.57;10.57;;;;;;;9.08;68.97;100402.72;10551200;28;20498;-74
2023/02/17 00:35:07;;;;;;;12.35;11.20;;;;;;;9.16;68.45;100393.81;10545632;28;20043;-73
2023/02/17 00:40:09;;;;;;;11.77;10.77;;;;;;;9.15;68.25;100386.84;10527754;28;20055;-73
2023/02/17 00:45:11;;;;;;;11.50;10.60;;;;;;;9.10;68.37;100387.81;10546374;28;20042;-73
2023/02/17 00:50:12;;;;;;;11.68;10.57;;;;;;;9.17;68.17;100399.06;10528938;28;20048;-73
2023/02/17 00:55:14;;;;;;;12.82;11.70;;;;;;;8.91;69.29;100388.22;10544604;28;20052;-73
2023/02/17 01:00:16;;;;;;;11.93;11.02;;;;;;;9.01;69.25;100376.66;10546151;28;20067;-73
2023/02/17 01:05:18;;;;;;;11.30;10.30;;;;;;;8.99;68.85;100381.06;10548146;28;20388;-73
2023/02/17 01:10:20;;;;;;;12.10;11.10;;;;;;;9.10;68.26;100385.19;10543897;28;20047;-73
2023/02/17 01:15:22;;;;;;;12.60;11.48;;;;;;;8.91;69.27;100365.47;10527855;28;20127;-73
2023/02/17 01:20:23;;;;;;;11.00;10.10;;;;;;;8.88;69.73;100369.91;10535993;22;20036;-77
2023/02/17 01:25:25;;;;;;;10.00;9.20;;;;;;;9.09;68.67;100372.13;10503942;28;20051;-77
2023/02/17 01:30:29;;;;;;;11.07;9.05;;;;;;;9.10;68.62;100358.09;10469622;28;20045;-77
2023/02/17 01:35:33;;;;;;;10.10;9.18;;;;;;;9.20;68.16;100356.16;10468364;28;20044;-77
2023/02/17 01:40:34;;;;;;;9.43;8.63;;;;;;;8.97;69.58;100357.47;10503052;28;20049;-77
2023/02/17 01:45:44;;;;;;;8.52;7.90;;;;;;;9.01;69.75;100359.16;10502482;28;20040;-77
2023/02/17 01:50:52;;;;;;;9.57;8.45;;;;;;;9.05;70.09;100355.56;10484107;28;20052;-77
2023/02/17 01:55:55;;;;;;;9.35;8.55;;;;;;;9.16;70.14;100346.63;10502553;28;20043;-77
2023/02/17 02:01:02;;;;;;;9.80;8.82;;;;;;;9.21;70.81;100336.88;10484489;28;20440;-77
2023/02/17 02:06:10;;;;;;;9.13;8.33;;;;;;;8.92;72.97;100342.75;10503145;28;20493;-77
2023/02/17 02:11:12;;;;;;;9.32;7.85;;;;;;;9.01;72.87;100322.44;10484612;28;20051;-77
2023/02/17 02:16:14;;;;;;;8.32;7.53;;;;;;;9.09;72.16;100307.41;10502255;28;20037;-78
2023/02/17 02:21:33;;;;;;;10.50;8.40;;;;;;;8.86;73.28;100295.69;10483505;28;20048;-77
2023/02/17 02:26:41;;;;;;;7.53;6.85;;;;;;;8.97;73.12;100276.19;10501596;28;20093;-77
2023/02/17 02:32:20;;;;;;;7.85;7.15;;;;;;;9.17;72.17;100264.44;10501956;28;20079;-77
2023/02/17 02:37:34;;;;;;;8.35;7.13;;;;;;;9.27;71.15;100260.69;10483960;28;20521;-77
2023/02/17 02:42:37;;;;;;;6.80;6.03;;;;;;;9.27;71.50;100260.69;10484005;28;20440;-77
2023/02/17 02:47:48;;;;;;;7.45;6.72;;;;;;;9.21;71.67;100243.34;10502152;28;20123;-76
2023/02/17 02:53:44;;;;;;;9.20;8.43;;;;;;;9.05;75.17;100229.72;10483866;28;20046;-76
2023/02/17 02:58:58;;;;;;;10.38;9.45;;;;;;;8.98;75.47;100207.13;10489737;28;20075;-78
2023/02/17 03:04:16;;;;;;;8.65;7.95;;;;;;;9.00;75.35;100239.44;10502801;28;20056;-78
2023/02/17 03:09:26;;;;;;;11.52;9.13;;;;;;;8.94;75.75;100231.72;10485726;28;20041;-76
2023/02/17 03:14:35;;;;;;;10.38;9.48;;;;;;;8.91;76.37;100231.78;10483604;28;20041;-77
2023/02/17 03:19:37;;;;;;;10.20;9.20;;;;;;;8.99;76.63;100224.63;10484510;28;20048;-78
2023/02/17 03:24:38;;;;;;;9.95;9.05;;;;;;;8.91;77.09;100230.91;10483057;28;20041;-77
2023/02/17 03:29:42;;;;;;;9.40;8.50;;;;;;;9.00;75.95;100221.09;10491423;28;20052;-77
2023/02/17 03:34:44;;;;;;;9.38;8.48;;;;;;;9.05;75.65;100213.13;10494063;28;20048;-77
2023/02/17 03:39:46;;;;;;;9.40;8.63;;;;;;;9.12;75.55;100213.81;10513216;28;20452;-78
2023/02/17 03:44:48;;;;;;;11.20;8.50;;;;;;;9.07;76.19;100216.56;10491178;28;20071;-77
2023/02/17 03:49:50;;;;;;;8.98;8.07;;;;;;;9.10;76.33;100224.34;10510685;28;20052;-77
2023/02/17 03:54:52;;;;;;;16.10;8.70;;;;;;;9.00;77.38;100210.59;10511366;28;20037;-77
2023/02/17 03:59:54;;;;;;;8.95;8.07;;;;;;;9.04;78.52;100208.78;10510568;28;20043;-77
2023/02/17 04:04:55;;;;;;;10.13;8.80;;;;;;;8.95;79.28;100212.47;10509161;28;20041;-77
2023/02/17 04:09:57;;;;;;;10.25;7.93;;;;;;;8.83;81.50;100210.09;10512784;28;20044;-78
2023/02/17 04:14:59;;;;;;;9.07;8.27;;;;;;;8.76;84.17;100206.75;10513176;28;20498;-79
2023/02/17 04:20:00;;;;;;;11.43;10.43;;;;;;;8.52;91.53;100213.38;10510910;28;20060;-77
2023/02/17 04:25:02;;;;;;;11.85;10.77;;;;;;;8.15;98.11;100213.22;10509465;28;20486;-79
2023/02/17 04:30:05;;;;;;;15.82;12.23;;;;;;;7.94;100.00;100201.38;10511811;28;20044;-77
2023/02/17 04:35:07;;;;;;;11.75;10.65;;;;;;;7.95;99.85;100195.25;10489112;28;20070;-79
2023/02/17 04:40:10;;;;;;;12.77;11.48;;;;;;;7.98;98.54;100195.19;10507669;28;20071;-77
2023/02/17 04:45:12;;;;;;;13.70;11.88;;;;;;;8.01;99.63;100194.25;10493875;28;20502;-79
2023/02/17 04:50:14;;;;;;;14.05;12.68;;;;;;;7.89;100.00;100199.75;10496557;28;20460;-77
2023/02/17 04:55:16;;;;;;;12.10;11.05;;;;;;;7.92;100.00;100189.19;10505759;28;20037;-77
2023/02/17 05:00:18;;;;;;;18.92;10.75;;;;;;;7.98;99.79;100170.78;10488055;28;20469;-79
2023/02/17 05:05:20;;;;;;;11.05;10.05;;;;;;;7.97;99.08;100163.78;10506176;28;20036;-77
2023/02/17 05:10:21;;;;;;;11.50;10.40;;;;;;;8.08;99.12;100165.31;10507447;28;20044;-77
2023/02/17 05:15:24;;;;;;;11.57;10.68;;;;;;;8.08;100.00;100175.81;10506541;28;20041;-77
2023/02/17 05:20:26;;;;;;;12.55;11.45;;;;;;;8.06;100.00;100179.34;10504641;28;20045;-77
2023/02/17 05:25:28;;;;;;;12.40;11.40;;;;;;;8.06;100.00;100171.50;10486162;28;20493;-77
2023/02/17 05:30:30;;;;;;;10.88;9.98;;;;;;;8.13;100.00;100169.63;10503518;28;20416;-76
2023/02/17 05:35:34;;;;;;;10.55;9.70;;;;;;;8.13;100.00;100165.25;10505505;28;20120;-79
2023/02/17 05:40:35;;;;;;;11.30;10.30;;;;;;;8.15;100.00;100162.63;10485982;28;20036;-78
2023/02/17 05:45:37;;;;;;;13.23;9.90;;;;;;;8.16;100.00;100154.72;10504213;28;20040;-78
2023/02/17 05:50:39;;;;;;;10.48;9.65;;;;;;;8.26;100.00;100152.75;10501899;28;20048;-77
2023/02/17 05:55:40;;;;;;;11.60;10.60;;;;;;;8.26;100.00;100147.53;10502493;28;20106;-78
2023/02/17 06:00:44;;;;;;;9.07;8.38;;;;;;;8.41;100.00;100143.75;10503533;28;20098;-79
2023/02/17 06:05:45;;;;;;;9.77;8.98;;;;;;;8.41;100.00;100139.41;10508507;28;20043;-78
2023/02/17 06:10:47;;;;;;;10.35;9.55;;;;;;;8.44;100.00;100141.06;10512073;28;20063;-79
2023/02/17 06:15:49;;;;;;;9.18;8.48;;;;;;;8.46;100.00;100132.31;10510582;28;20090;-79
2023/02/17 06:20:54;;;;;;;9.93;9.07;;;;;;;8.36;100.00;100135.97;10492473;28;20510;-78
2023/02/17 06:25:55;;;;;;;8.75;8.15;;;;;;;8.54;98.64;100138.25;10511187;28;20036;-78
2023/02/17 06:30:57;;;;;;;8.38;7.78;;;;;;;8.57;97.68;100140.78;10491652;28;20052;-78
2023/02/17 06:35:59;;;;;;;9.13;8.32;;;;;;;8.48;98.48;100147.97;10508829;28;20493;-78
2023/02/17 06:41:00;;;;;;;8.63;7.93;;;;;;;8.67;96.17;100132.72;10509548;28;20048;-79
2023/02/17 06:46:02;;;;;;;8.80;7.93;;;;;;;8.72;95.18;100143.94;10504496;28;20037;-79
2023/02/17 06:51:04;;;;;;;10.13;9.27;;;;;;;8.79;94.22;100148.16;10508286;28;20051;-79
2023/02/17 06:56:06;;;;;;;8.38;7.68;;;;;;;8.77;94.41;100124.63;10488043;28;20044;-80
2023/02/17 07:01:16;;;;;;;8.35;7.75;;;;;;;8.88;93.23;100134.84;10511112;28;20063;-77
2023/02/17 07:06:18;;;;;;;8.52;7.82;;;;;;;8.92;93.01;100141.75;10521770;28;20085;-78
2023/02/17 07:11:20;;;;;;;9.23;8.43;;;;;;;8.87;94.03;100137.50;10519490;28;20090;-78
2023/02/17 07:16:22;;;;;;;8.80;8.13;;;;;;;8.85;94.25;100148.00;10518963;28;20396;-78
2023/02/17 07:21:24;;;;;;;7.97;7.38;;;;;;;8.88;94.76;100141.84;10552600;22;20044;-74
2023/02/17 07:26:25;;;;;;;8.65;7.90;;;;;;;8.94;94.13;100139.97;10577977;28;20142;-73
2023/02/17 07:31:27;;;;;;;8.32;7.72;;;;;;;8.88;95.50;100134.84;10595205;28;20105;-75
2023/02/17 07:36:29;;;;;;;10.38;7.93;;;;;;;8.92;95.11;100140.88;10579011;28;20039;-74
2023/02/17 07:41:32;;;;;;;7.50;6.90;;;;;;;8.82;96.36;100130.63;10595389;28;20407;-74
2023/02/17 07:46:42;;;;;;;8.55;7.78;;;;;;;8.85;96.47;100124.41;10558504;28;20050;-75
2023/02/17 07:51:44;;;;;;;8.40;7.70;;;;;;;9.05;95.00;100114.34;10588592;28;20047;-75
2023/02/17 07:56:46;;;;;;;8.70;8.00;;;;;;;9.02;95.47;100105.69;10554490;28;20044;-74
2023/02/17 08:01:48;;;;;;;8.73;7.97;;;;;;;9.01;95.37;100115.31;10567547;28;20047;-75
2023/02/17 08:06:50;;;;;;;7.82;7.28;;;;;;;9.13;95.02;100108.91;10589660;28;20036;-74
2023/02/17 08:17:12;;;;;;;9.02;8.27;;;;;;;9.23;94.11;100134.00;10547695;28;20072;-74
2023/02/17 08:22:15;;;;;;;9.27;8.57;;;;;;;9.28;93.07;100124.25;10538312;28;20063;-74
2023/02/17 08:27:18;;;;;;;8.48;7.88;;;;;;;9.25;93.22;100129.59;10546988;28;20043;-76
2023/02/17 08:32:19;;;;;;;8.43;7.72;;;;;;;9.22;94.02;100134.91;10520922;28;20040;-75
2023/02/17 08:37:21;;;;;;;9.20;8.40;;;;;;;9.32;92.68;100139.03;10545434;28;20050;-74
2023/02/17 08:42:25;;;;;;;8.13;7.43;;;;;;;9.28;93.56;100129.50;10516542;28;20083;-74
2023/02/17 08:47:27;;;;;;;8.10;7.50;;;;;;;9.37;91.77;100128.41;10502781;28;20044;-74
2023/02/17 08:52:29;;;;;;;8.25;7.50;;;;;;;9.35;92.17;100120.59;10503170;28;20064;-74
2023/02/17 08:57:30;;;;;;;6.63;6.13;;;;;;;9.47;90.52;100119.38;10502618;28;20066;-75
2023/02/17 09:02:32;;;;;;;6.82;6.20;;;;;;;9.55;89.67;100111.31;10598935;22;20098;-74
2023/02/17 09:07:34;;;;;;;6.28;5.65;;;;;;;9.64;89.11;100097.97;10464704;28;20055;-74
2023/02/17 09:12:36;;;;;;;6.53;5.93;;;;;;;9.73;88.18;100079.34;10492838;28;20083;-75
2023/02/17 09:24:15;;;;;;;5.97;5.47;;;;;;;10.09;85.62;100068.69;10478004;22;20049;-74
2023/02/17 09:41:50;;;;;;;3.53;3.22;;;;;;;10.61;81.73;100068.00;10325979;28;20054;-75
2023/02/17 09:47:06;;;;;;;3.70;3.42;;;;;;;10.72;80.82;100059.81;10318509;28;20133;-75
2023/02/17 09:52:32;;;;;;;3.63;3.33;;;;;;;10.76;80.37;100036.91;10333399;28;20062;-75
2023/02/17 09:57:48;;;;;;;4.35;3.22;;;;;;;10.78;79.23;100027.19;10328852;28;20050;-75
2023/02/17 10:03:03;;;;;;;3.55;3.22;;;;;;;10.85;79.13;100023.47;10332598;28;20054;-75
2023/02/17 10:08:12;;;;;;;3.10;2.90;;;;;;;10.75;78.91;100007.09;10334904;28;20065;-75
2023/02/17 10:13:19;;;;;;;3.83;2.78;;;;;;;10.67;79.21;100006.50;10367594;28;20059;-75
2023/02/17 10:18:33;;;;;;;3.90;3.40;;;;;;;10.67;79.41;100008.25;10459364;28;20037;-75
2023/02/17 10:23:35;;;;;;;3.30;3.00;;;;;;;10.60;80.43;100000.56;10457971;28;20084;-76
2023/02/17 10:28:48;;;;;;;3.58;3.28;;;;;;;10.72;80.88;99987.97;10458517;28;20559;-74
2023/02/17 10:33:56;;;;;;;3.85;3.08;;;;;;;10.86;79.32;99968.16;10458089;28;20466;-74
2023/02/17 10:39:20;;;;;;;3.30;3.00;;;;;;;10.96;79.52;99962.59;10438585;28;20139;-75
2023/02/17 10:44:23;;;;;;;3.33;2.95;;;;;;;11.05;78.32;99934.19;10432764;28;20041;-75
2023/02/17 10:49:33;;;;;;;2.63;2.33;;;;;;;11.15;77.92;99936.50;10456477;28;20055;-74
2023/02/17 10:54:38;;;;;;;2.75;2.55;;;;;;;11.23;78.27;99914.25;10441416;28;20033;-75
2023/02/17 10:59:42;;;;;;;3.40;2.40;;;;;;;11.29;77.59;99924.59;10457530;28;20043;-75
2023/02/17 11:04:47;;;;;;;2.75;2.55;;;;;;;11.33;77.35;99910.41;10424068;28;20513;-75
2023/02/17 11:09:54;;;;;;;2.75;2.40;;;;;;;11.34;77.83;99898.09;10459490;28;20123;-75
2023/02/17 11:14:56;;;;;;;2.47;2.23;;;;;;;11.27;79.68;99884.28;10459803;28;20044;-75
2023/02/17 11:20:08;;;;;;;3.40;2.35;;;;;;;11.28;80.03;99877.25;10457508;28;20045;-76
2023/02/17 11:25:24;;;;;;;2.47;2.28;;;;;;;11.26;81.43;99865.94;10439094;28;20037;-75
2023/02/17 11:30:28;;;;;;;3.40;2.40;;;;;;;11.26;82.03;99850.16;10453524;28;20045;-75
2023/02/17 11:35:35;;;;;;;2.47;2.00;;;;;;;11.21;82.78;99839.81;10459938;28;20083;-75
2023/02/17 11:40:37;;;;;;;2.78;2.47;;;;;;;11.36;81.82;99827.84;10422537;28;20051;-75
2023/02/17 11:45:48;;;;;;;3.25;2.30;;;;;;;11.34;81.30;99822.63;10456199;28;20478;-75
2023/02/17 11:51:11;;;;;;;2.30;1.88;;;;;;;11.44;81.53;99815.25;10463806;28;20041;-75
2023/02/17 11:56:17;;;;;;;2.40;1.60;;;;;;;11.57;81.66;99802.47;10464593;28;20041;-74
2023/02/17 12:01:35;;;;;;;2.47;1.95;;;;;;;11.63;82.14;99797.78;10466956;28;20112;-75
2023/02/17 12:06:39;;;;;;;2.10;1.90;;;;;;;11.76;81.47;99774.47;10465090;28;20037;-75
2023/02/17 12:12:02;;;;;;;2.00;1.80;;;;;;;11.76;82.49;99771.81;10463426;28;20045;-75
2023/02/17 12:17:47;;;;;;;3.70;2.22;;;;;;;11.83;82.28;99777.75;10447651;28;20383;-74
2023/02/17 12:23:05;;;;;;;3.42;2.30;;;;;;;11.92;81.67;99766.84;10417906;28;20045;-74
2023/02/17 12:28:34;;;;;;;3.67;2.00;;;;;;;11.92;82.00;99764.19;10463050;28;20124;-75
2023/02/17 12:34:04;;;;;;;3.10;1.77;;;;;;;12.03;81.29;99735.63;10463060;28;20099;-73
2023/02/17 12:39:17;;;;;;;2.17;1.98;;;;;;;12.14;80.58;99740.44;10464112;28;20406;-75
2023/02/17 12:44:32;;;;;;;2.45;1.75;;;;;;;12.17;81.11;99721.00;10464375;28;20041;-74
2023/02/17 12:49:40;;;;;;;2.97;1.60;;;;;;;12.27;80.23;99727.59;10462573;28;20052;-74
2023/02/17 12:55:37;;;;;;;2.60;1.83;;;;;;;12.31;80.50;99730.03;10461774;28;20114;-74
2023/02/17 13:00:51;;;;;;;3.95;1.60;;;;;;;12.44;79.87;99721.56;10364858;28;20060;-74
2023/02/17 13:06:01;;;;;;;3.45;2.00;;;;;;;12.50;79.24;99713.41;10465005;28;20041;-75
2023/02/17 13:11:24;;;;;;;2.58;1.88;;;;;;;12.52;79.78;99699.19;10464091;28;20041;-74
2023/02/17 13:16:27;;;;;;;2.03;1.50;;;;;;;12.54;79.31;99686.81;10462461;28;20045;-74
2023/02/17 13:21:32;;;;;;;4.07;1.88;;;;;;;12.52;79.42;99698.34;10469512;22;20042;-71
2023/02/17 13:26:36;;;;;;;2.28;1.40;;;;;;;12.52;79.01;99679.91;10419361;28;20076;-72
2023/02/17 13:32:00;;;;;;;2.05;1.20;;;;;;;12.50;80.04;99660.69;10419604;28;20045;-71
2023/02/17 13:37:43;;;;;;;2.35;1.50;;;;;;;12.47;78.80;99648.47;10402475;28;20097;-71
2023/02/17 13:42:51;;;;;;;1.98;1.55;;;;;;;12.48;78.99;99647.53;10417121;28;20503;-72
2023/02/17 13:47:56;;;;;;;1.60;1.50;;;;;;;12.42;78.67;99639.06;10419455;28;20449;-72
2023/02/17 13:52:59;;;;;;;1.63;1.15;;;;;;;12.44;78.58;99637.22;10418658;28;20046;-72
2023/02/17 13:58:00;;;;;;;2.05;0.95;;;;;;;12.48;78.02;99639.63;10418560;28;20037;-71
2023/02/17 14:03:22;;;;;;;2.10;1.23;;;;;;;12.48;77.78;99631.72;10420306;28;20068;-71
2023/02/17 14:08:42;;;;;;;1.42;0.90;;;;;;;12.60;76.68;99632.94;10418094;28;20041;-72
2023/02/17 14:13:50;;;;;;;1.88;0.90;;;;;;;12.60;76.71;99636.44;10417053;28;20080;-71
2023/02/17 14:19:01;;;;;;;1.42;1.10;;;;;;;12.59;76.72;99621.56;10418075;28;20042;-71
2023/02/17 14:24:04;;;;;;;1.20;0.90;;;;;;;12.68;75.38;99593.03;10412507;28;20088;-71
2023/02/17 14:29:08;;;;;;;9.65;4.65;;;;;;;12.71;75.23;99606.09;10396036;28;20372;-71
2023/02/17 14:34:19;;;;;;;2.15;1.52;;;;;;;12.70;75.14;99596.44;10394202;28;20061;-71
2023/02/17 14:39:21;;;;;;;2.15;0.80;;;;;;;12.63;75.44;99602.03;10400660;28;20132;-70
2023/02/17 14:44:23;;;;;;;2.33;0.90;;;;;;;12.59;76.14;99578.50;10384413;28;20062;-72
2023/02/17 14:49:25;;;;;;;1.08;0.80;;;;;;;12.61;76.08;99581.91;10375943;28;20053;-71
2023/02/17 14:54:27;;;;;;;0.88;0.80;;;;;;;12.57;76.42;99590.91;10375900;28;20052;-71
2023/02/17 14:59:31;;;;;;;2.15;0.88;;;;;;;12.57;76.72;99575.06;10376462;28;20064;-71
2023/02/17 15:04:32;;;;;;;4.30;0.98;;;;;;;12.54;77.00;99555.00;10415872;28;20053;-72
2023/02/17 15:09:34;;;;;;;1.00;0.90;;;;;;;12.53;77.25;99563.00;10375739;28;20127;-72
2023/02/17 15:14:36;;;;;;;1.92;0.90;;;;;;;12.58;76.93;99563.63;10405602;28;20043;-71
2023/02/17 15:19:38;;;;;;;1.40;0.95;;;;;;;12.65;77.13;99572.94;10398959;28;20057;-71
2023/02/17 15:24:40;;;;;;;1.85;1.15;;;;;;;12.55;77.72;99604.16;10423024;28;20048;-72
2023/02/17 15:29:42;;;;;;;1.50;1.10;;;;;;;12.51;78.42;99620.19;10425646;28;20045;-71
2023/02/17 15:34:45;;;;;;;2.03;1.00;;;;;;;12.46;79.06;99652.03;10389472;28;20491;-71
2023/02/17 15:39:46;;;;;;;1.10;1.00;;;;;;;12.36;80.36;99640.22;10383036;28;20042;-71
2023/02/17 15:44:49;;;;;;;1.42;1.13;;;;;;;12.29;80.91;99636.13;10383107;28;20038;-71
2023/02/17 15:49:51;;;;;;;1.13;0.95;;;;;;;12.31;81.13;99637.78;10377729;28;20050;-71
2023/02/17 15:54:52;;;;;;;2.25;1.20;;;;;;;12.31;81.39;99645.69;10381712;28;20048;-71
2023/02/17 15:59:55;;;;;;;1.20;1.08;;;;;;;12.28;81.79;99647.59;10364646;28;20057;-71
2023/02/17 16:04:56;;;;;;;1.02;0.93;;;;;;;12.25;82.21;99661.75;10401199;28;20041;-71
2023/02/17 16:09:58;;;;;;;1.48;1.15;;;;;;;12.27;82.27;99645.91;10388496;28;20048;-71
2023/02/17 16:15:01;;;;;;;1.30;1.20;;;;;;;12.12;83.12;99637.72;10386360;28;20463;-72
2023/02/17 16:20:06;;;;;;;2.25;1.20;;;;;;;12.18;82.36;99639.25;10460316;28;20036;-74
2023/02/17 16:25:10;;;;;;;1.33;1.23;;;;;;;12.10;82.80;99636.97;10438869;28;20045;-72
2023/02/17 16:30:21;;;;;;;5.35;1.10;;;;;;;12.14;82.70;99642.09;10390746;28;20045;-69
2023/02/17 16:35:26;;;;;;;1.55;1.13;;;;;;;12.15;82.78;99642.03;10421361;28;20069;-70
2023/02/17 16:40:30;;;;;;;2.10;1.10;;;;;;;12.12;82.85;99650.06;10405161;28;20437;-70
2023/02/17 16:45:32;;;;;;;2.72;1.30;;;;;;;12.16;82.38;99646.38;10403942;28;20091;-69
2023/02/17 16:50:34;;;;;;;2.17;1.98;;;;;;;12.17;82.28;99641.94;10421821;28;20076;-70
2023/02/17 16:55:37;;;;;;;1.02;1.02;;;;;;;12.18;81.92;99643.69;10407897;28;20045;-73
2023/02/17 17:00:39;;;;;;;3.42;3.22;;;;;;;12.18;82.03;99662.13;10409054;28;20564;-72
2023/02/17 17:05:41;;;;;;;2.00;1.48;;;;;;;12.10;82.00;99623.78;10404732;28;20042;-72
2023/02/17 17:10:44;;;;;;;3.50;1.92;;;;;;;12.09;82.16;99619.44;10422192;28;20041;-72
2023/02/17 17:15:46;;;;;;;1.70;1.60;;;;;;;12.24;81.25;99640.75;10422089;28;20043;-73
2023/02/17 17:20:48;;;;;;;10.00;8.95;;;;;;;12.30;80.96;99646.59;10421753;28;20048;-73
2023/02/17 17:25:50;;;;;;;4.20;3.80;;;;;;;12.20;81.56;99641.81;10404181;28;20042;-74
2023/02/17 17:30:52;;;;;;;1.30;1.02;;;;;;;12.36;80.59;99651.63;10422983;28;20041;-72
2023/02/17 17:35:57;;;;;;;2.47;2.15;;;;;;;12.46;79.92;99669.66;10428284;28;20046;-74
2023/02/17 17:41:04;;;;;;;4.90;4.40;;;;;;;12.50;79.99;99672.06;10410074;28;20068;-71
2023/02/17 17:46:20;;;;;;;8.93;4.78;;;;;;;12.68;79.28;99685.34;10392662;28;20068;-73
2023/02/17 17:51:25;;;;;;;3.33;3.03;;;;;;;12.69;78.94;99684.41;10388554;28;20139;-71
2023/02/17 17:56:35;;;;;;;1.50;1.40;;;;;;;12.67;79.55;99696.81;10387563;28;20099;-72
2023/02/17 18:01:37;;;;;;;1.55;1.45;;;;;;;12.73;79.44;99691.25;10422676;28;20052;-70
2023/02/17 18:06:42;;;;;;;3.65;2.75;;;;;;;12.69;80.21;99722.19;10417174;28;20115;-70
2023/02/17 18:11:45;;;;;;;3.15;2.95;;;;;;;12.64;81.71;99718.91;10417067;28;20049;-70
2023/02/17 18:16:48;;;;;;;5.05;4.68;;;;;;;12.75;81.80;99726.31;10416702;28;20491;-70
2023/02/17 18:21:49;;;;;;;2.08;1.77;;;;;;;12.49;86.74;99762.63;10416178;28;20033;-70
2023/02/17 18:26:51;;;;;;;15.27;14.13;;;;;;;12.21;96.01;99775.28;10416567;28;20037;-71
2023/02/17 18:31:53;;;;;;;15.85;14.52;;;;;;;11.74;100.00;99778.09;10398304;28;20057;-70
2023/02/17 18:36:55;;;;;;;10.43;9.63;;;;;;;11.39;100.00;99782.13;10416757;28;20038;-69
2023/02/17 18:41:56;;;;;;;9.07;5.28;;;;;;;11.20;100.00;99803.00;10415804;28;20049;-69
2023/02/17 18:46:58;;;;;;;5.93;5.43;;;;;;;10.87;100.00;99816.50;10415820;28;20037;-68
2023/02/17 18:52:00;;;;;;;4.00;3.72;;;;;;;10.73;100.00;99795.97;10415683;28;20048;-69
2023/02/17 18:57:01;;;;;;;3.45;2.38;;;;;;;10.77;100.00;99815.13;10415308;28;20047;-69
2023/02/17 19:02:05;;;;;;;3.15;2.85;;;;;;;10.73;100.00;99838.03;10415564;28;20150;-70
2023/02/17 19:07:07;;;;;;;1.98;1.83;;;;;;;10.74;100.00;99833.63;10398253;28;20045;-71
2023/02/17 19:12:12;;;;;;;1.73;1.63;;;;;;;10.62;100.00;99816.53;10415625;28;20045;-69
2023/02/17 19:17:17;;;;;;;2.28;1.83;;;;;;;10.66;100.00;99819.91;10397886;28;20064;-70
2023/02/17 19:22:19;;;;;;;1.98;1.80;;;;;;;10.60;100.00;99819.22;10436411;22;20064;-75
2023/02/17 19:27:21;;;;;;;2.63;2.45;;;;;;;10.60;100.00;99813.97;10459799;28;20513;-77
2023/02/17 19:32:23;;;;;;;2.20;2.10;;;;;;;10.78;100.00;99843.13;10442072;28;20047;-76
2023/02/17 19:37:24;;;;;;;2.15;1.80;;;;;;;10.83;100.00;99833.31;10459178;28;20115;-76
2023/02/17 19:42:27;;;;;;;1.60;1.50;;;;;;;10.88;100.00;99828.75;10459057;28;20045;-75
2023/02/17 19:47:29;;;;;;;2.17;1.80;;;;;;;10.99;100.00;99857.28;10459352;28;20394;-75
2023/02/17 19:52:31;;;;;;;2.38;2.17;;;;;;;11.02;100.00;99855.41;10458931;28;20494;-75
2023/02/17 19:57:33;;;;;;;2.22;2.03;;;;;;;11.05;100.00;99847.41;10459648;28;20033;-76
2023/02/17 20:02:35;;;;;;;3.15;2.95;;;;;;;11.08;100.00;99844.66;10458653;28;20045;-75
2023/02/17 20:07:37;;;;;;;2.78;2.58;;;;;;;11.14;100.00;99840.09;10458684;28;20033;-75
2023/02/17 20:12:42;;;;;;;7.10;5.10;;;;;;;11.01;100.00;99851.03;10465836;28;20047;-75
2023/02/17 20:17:43;;;;;;;6.30;5.80;;;;;;;11.06;100.00;99849.09;10465983;28;20103;-74
2023/02/17 20:22:45;;;;;;;10.05;9.35;;;;;;;11.00;100.00;99853.75;10446966;28;20052;-75
2023/02/17 20:27:47;;;;;;;4.88;4.47;;;;;;;10.98;100.00;99856.44;10465138;28;20041;-76
2023/02/17 20:32:49;;;;;;;6.28;5.78;;;;;;;11.27;100.00;99860.63;10447624;28;20118;-76
2023/02/17 20:37:51;;;;;;;5.78;4.85;;;;;;;11.21;100.00;99862.63;10465196;28;20111;-75
2023/02/17 20:42:53;;;;;;;9.93;9.20;;;;;;;11.27;100.00;99872.91;10429851;28;20049;-75
2023/02/17 20:47:54;;;;;;;3.90;3.38;;;;;;;11.18;100.00;99857.47;10447193;28;20049;-77
2023/02/17 20:52:56;;;;;;;4.35;4.05;;;;;;;11.09;100.00;99875.31;10446536;28;20482;-76
2023/02/17 20:57:59;;;;;;;3.60;3.30;;;;;;;11.01;100.00;99877.34;10466007;28;20038;-75
2023/02/17 21:03:00;;;;;;;3.25;2.97;;;;;;;10.95;100.00;99877.59;10465340;28;20413;-78
2023/02/17 21:08:03;;;;;;;3.53;3.25;;;;;;;10.86;100.00;99884.03;10464476;28;20044;-77
2023/02/17 21:13:05;;;;;;;3.38;3.17;;;;;;;10.88;98.90;99891.00;10465020;28;20079;-76
2023/02/17 21:18:07;;;;;;;3.38;2.92;;;;;;;10.58;99.87;99902.53;10465489;28;20117;-76
2023/02/17 21:23:09;;;;;;;3.13;2.88;;;;;;;10.66;98.15;99914.53;10444583;28;20127;-75
2023/02/17 21:28:11;;;;;;;3.58;3.28;;;;;;;10.62;97.74;99911.16;10463234;28;20049;-76
2023/02/17 21:33:12;;;;;;;8.25;3.65;;;;;;;10.57;97.01;99913.06;10463738;28;20499;-76
2023/02/17 21:38:15;;;;;;;4.25;3.85;;;;;;;10.54;97.01;99923.72;10462920;28;20112;-76
2023/02/17 21:48:38;;;;;;;4.00;3.70;;;;;;;10.48;95.11;99950.19;10463466;28;20048;-76
2023/02/17 21:53:40;;;;;;;4.20;3.90;;;;;;;10.48;93.96;99976.47;10462949;28;20049;-76
2023/02/17 21:58:47;;;;;;;3.28;3.08;;;;;;;10.61;91.70;99991.78;10462486;28;20037;-76
2023/02/17 22:03:48;;;;;;;3.20;3.00;;;;;;;10.49;93.06;100021.09;10462856;28;20044;-74
2023/02/17 22:08:51;;;;;;;3.33;2.42;;;;;;;9.84;97.38;100031.78;10461813;28;20044;-74
2023/02/17 22:13:57;;;;;;;4.57;2.65;;;;;;;9.26;100.00;100039.50;10460683;28;20052;-76
2023/02/17 22:19:00;;;;;;;3.90;1.50;;;;;;;8.86;100.00;100059.78;10461537;28;20048;-75
2023/02/17 22:24:01;;;;;;;4.05;1.42;;;;;;;8.77;100.00;100059.09;10460627;28;20052;-74
2023/02/17 22:29:03;;;;;;;4.15;1.42;;;;;;;8.71;100.00;100074.94;10461732;28;20549;-76
2023/02/17 22:34:08;;;;;;;3.65;1.50;;;;;;;8.70;100.00;100077.63;10459787;28;20047;-76
2023/02/17 22:39:10;;;;;;;5.72;1.77;;;;;;;8.52;100.00;100071.91;10461297;28;20049;-75
2023/02/17 22:44:12;;;;;;;5.15;2.20;;;;;;;8.59;100.00;100056.91;10443411;28;20049;-76
2023/02/17 22:49:14;;;;;;;4.88;1.92;;;;;;;8.67;100.00;100067.19;10443453;28;20049;-75
2023/02/17 22:54:16;;;;;;;4.20;1.90;;;;;;;8.57;100.00;100075.28;10461014;28;20041;-76
2023/02/17 22:59:17;;;;;;;3.92;1.90;;;;;;;8.56;100.00;100081.41;10461562;28;20048;-74
2023/02/17 23:04:19;;;;;;;3.20;2.30;;;;;;;8.47;100.00;100078.16;10443305;28;20059;-75
2023/02/17 23:09:21;;;;;;;2.97;1.70;;;;;;;8.64;100.00;100080.41;10461290;28;20040;-76
2023/02/17 23:14:34;;;;;;;3.75;1.40;;;;;;;8.80;99.78;100092.22;10460087;28;20091;-75
2023/02/17 23:19:37;;;;;;;3.63;1.63;;;;;;;8.76;99.83;100099.28;10442237;28;20052;-75
2023/02/17 23:24:39;;;;;;;5.05;2.10;;;;;;;8.71;98.33;100111.63;10440000;28;20041;-74
2023/02/17 23:29:41;;;;;;;3.08;1.42;;;;;;;8.83;97.73;100100.88;10439533;28;20049;-75
2023/02/17 23:34:43;;;;;;;5.47;1.50;;;;;;;8.67;98.33;100112.59;10457065;28;20041;-75
2023/02/17 23:39:45;;;;;;;2.95;1.40;;;;;;;8.63;99.72;100124.03;10457882;28;20573;-76
2023/02/17 23:44:46;;;;;;;4.03;1.55;;;;;;;8.81;97.94;100110.56;10460443;28;20047;-75
2023/02/17 23:49:48;;;;;;;4.28;1.52;;;;;;;8.75;97.94;100121.16;10464079;28;20055;-75
2023/02/17 23:54:50;;;;;;;3.78;2.03;;;;;;;8.76;99.33;100122.00;10464399;28;20079;-76
2023/02/17 23:59:52;;;;;;;4.32;2.45;;;;;;;8.61;100.00;100125.84;10446793;28;20076;-77
